Time;durP1;ratioP1;P1;durP2;ratioP2;P2;SDS_P1;SDS_P2;PMS_P1;PMS_P2;Temp;Humidity;BMP_temperature;BMP_pressure;BME280_temperature;BME280_humidity;BME280_pressure;Samples;Min_cycle;Max_cycle;Signal;HPM_P1;HPM_P2
2021/12/15 00:01:16;;;;;;;68.20;33.53;;;;;;;7.97;56.18;101049.53;2512674;77;25627;-80
2021/12/15 00:04:38;;;;;;;68.55;34.20;;;;;;;7.99;56.24;101044.39;2528707;76;25601;-79
2021/12/15 00:08:03;;;;;;;74.25;34.55;;;;;;;7.99;56.24;101043.98;2502176;77;25674;-79
2021/12/15 00:11:32;;;;;;;69.35;36.53;;;;;;;8.01;56.22;101047.96;2491807;79;25626;-87
2021/12/15 00:14:50;;;;;;;69.60;35.98;;;;;;;8.02;56.24;101042.82;2522634;78;25603;-79
2021/12/15 00:18:14;;;;;;;65.05;34.30;;;;;;;8.04;56.29;101053.30;2546597;77;25620;-79
2021/12/15 00:21:36;;;;;;;68.40;35.70;;;;;;;8.05;56.29;101048.56;2510742;78;25664;-82
2021/12/15 00:24:57;;;;;;;64.45;33.65;;;;;;;8.04;56.31;101042.48;2540482;76;25436;-85
2021/12/15 00:28:18;;;;;;;60.20;32.13;;;;;;;8.06;56.32;101038.65;2546851;77;25685;-80
2021/12/15 00:31:42;;;;;;;64.30;34.25;;;;;;;8.07;56.36;101038.27;2546809;77;25642;-80
2021/12/15 00:35:05;;;;;;;58.85;32.25;;;;;;;8.07;56.37;101040.86;2547230;77;25565;-80
2021/12/15 00:38:28;;;;;;;60.48;32.65;;;;;;;8.07;56.40;101044.76;2546004;77;25665;-80
2021/12/15 00:41:50;;;;;;;58.85;32.85;;;;;;;8.08;56.42;101049.12;2547502;77;25524;-79
2021/12/15 00:45:12;;;;;;;65.42;33.80;;;;;;;8.08;56.42;101050.42;2547348;77;26270;-81
2021/12/15 00:48:35;;;;;;;64.30;32.78;;;;;;;8.08;56.43;101048.70;2546875;77;25623;-78
2021/12/15 00:51:56;;;;;;;71.33;32.90;;;;;;;8.09;56.50;101067.77;2547228;77;25610;-81
2021/12/15 00:55:23;;;;;;;61.50;31.20;;;;;;;8.10;56.52;101073.43;2547156;77;25574;-79
2021/12/15 00:58:45;;;;;;;57.05;30.68;;;;;;;8.11;56.55;101076.53;2547451;77;25577;-78
2021/12/15 01:02:07;;;;;;;56.37;30.50;;;;;;;8.10;56.55;101083.44;2546777;77;25629;-83
2021/12/15 01:05:35;;;;;;;62.70;32.35;;;;;;;8.13;56.55;101085.25;2547242;77;25531;-79
2021/12/15 01:09:02;;;;;;;62.00;32.53;;;;;;;8.11;56.58;101089.09;2547582;76;25901;-78
2021/12/15 01:23:13;;;;;;;58.20;30.15;;;;;;;8.14;56.75;101085.34;2423298;81;25769;-79
2021/12/15 01:26:34;;;;;;;53.02;28.80;;;;;;;8.14;56.77;101080.56;2409965;81;25738;-80
2021/12/15 01:29:56;;;;;;;59.80;30.08;;;;;;;8.15;56.78;101091.42;2408185;82;25791;-79
2021/12/15 01:33:18;;;;;;;54.77;28.75;;;;;;;8.15;56.82;101094.02;2408107;82;25736;-79
2021/12/15 01:36:39;;;;;;;51.30;28.85;;;;;;;8.15;56.85;101086.23;2408230;82;25730;-82
2021/12/15 01:40:01;;;;;;;56.90;30.62;;;;;;;8.15;56.86;101080.61;2408519;82;25761;-78
2021/12/15 01:43:51;;;;;;;55.43;29.50;;;;;;;8.16;56.86;101080.20;2408135;82;25762;-81
2021/12/15 01:47:03;;;;;;;53.80;29.67;;;;;;;8.17;56.88;101088.50;2406025;81;25773;-78
2021/12/15 01:50:24;;;;;;;51.48;28.52;;;;;;;8.16;56.89;101086.28;2408464;82;25595;-81
2021/12/15 01:53:45;;;;;;;55.10;28.40;;;;;;;8.18;56.88;101089.84;2407987;82;25815;-79
2021/12/15 01:57:09;;;;;;;50.90;28.40;;;;;;;8.18;56.88;101085.06;2514978;77;25782;-82
2021/12/15 02:00:44;;;;;;;53.10;28.23;;;;;;;8.19;56.89;101095.52;2545863;77;25709;-79
2021/12/15 02:04:07;;;;;;;49.83;26.97;;;;;;;8.20;56.91;101096.39;2547162;77;25151;-78
2021/12/15 02:07:28;;;;;;;46.75;27.50;;;;;;;8.20;56.91;101096.02;2547130;77;25687;-82
2021/12/15 02:10:49;;;;;;;53.92;28.42;;;;;;;8.21;56.92;101095.59;2547077;77;25652;-80
2021/12/15 02:14:11;;;;;;;52.17;27.50;;;;;;;8.21;56.92;101103.39;2547220;77;25840;-82
2021/12/15 02:17:32;;;;;;;49.05;28.20;;;;;;;8.22;56.96;101100.84;2547307;77;25706;-80
2021/12/15 02:20:59;;;;;;;42.83;25.90;;;;;;;8.22;56.95;101094.35;2547077;77;25192;-83
2021/12/15 02:24:22;;;;;;;42.05;25.23;;;;;;;8.24;56.98;101090.54;2543901;77;25652;-78
2021/12/15 02:27:44;;;;;;;47.88;26.60;;;;;;;8.24;56.94;101095.32;2497313;78;25958;-79
2021/12/15 02:31:17;;;;;;;48.33;27.13;;;;;;;8.25;56.97;101098.80;2496691;78;25719;-78
2021/12/15 02:34:56;;;;;;;43.45;24.72;;;;;;;8.26;56.94;101103.17;2525883;78;25730;-82
2021/12/15 02:37:56;;;;;;;42.17;24.95;;;;;;;8.26;56.94;101101.45;2522183;78;25677;-77
2021/12/15 02:41:22;;;;;;;45.75;24.92;;;;;;;8.27;56.99;101109.75;2527099;78;25659;-83
2021/12/15 02:44:45;;;;;;;42.10;25.37;;;;;;;8.28;56.99;101114.53;2527218;78;25639;-79
2021/12/15 02:48:06;;;;;;;43.85;25.70;;;;;;;8.28;56.97;101105.02;2526952;78;25851;-79
2021/12/15 02:51:30;;;;;;;45.63;25.23;;;;;;;8.28;56.99;101101.13;2527035;78;27987;-77
2021/12/15 02:54:52;;;;;;;48.00;24.82;;;;;;;8.31;56.99;101092.58;2526955;78;25706;-79
2021/12/15 02:58:13;;;;;;;41.77;23.35;;;;;;;8.31;56.97;101097.78;2496768;78;25613;-81
2021/12/15 03:05:21;;;;;;;44.45;22.55;;;;;;;8.32;57.00;101093.05;2527160;78;25689;-79
2021/12/15 03:15:47;;;;;;;42.13;25.50;;;;;;;8.34;57.05;101098.33;2526725;78;26505;-81
2021/12/15 03:19:08;;;;;;;38.55;23.05;;;;;;;8.35;57.04;101106.18;2527354;78;25694;-78
2021/12/15 03:22:29;;;;;;;39.85;22.48;;;;;;;8.35;57.04;101102.70;2527137;78;25659;-81
2021/12/15 03:25:50;;;;;;;39.10;23.80;;;;;;;8.36;57.07;101109.25;2546097;76;27023;-77
2021/12/15 03:36:50;;;;;;;39.98;23.85;;;;;;;8.39;57.09;101134.52;2569834;77;25658;-78
2021/12/15 03:40:37;;;;;;;38.13;22.93;;;;;;;8.38;57.12;101132.33;2564734;77;25603;-76
2021/12/15 03:43:57;;;;;;;44.00;23.95;;;;;;;8.38;57.12;101131.45;2568312;77;25609;-79
2021/12/15 03:47:26;;;;;;;35.52;22.35;;;;;;;8.38;57.13;101132.75;2569503;76;25704;-78
2021/12/15 03:50:53;;;;;;;39.58;22.98;;;;;;;8.39;57.15;101132.80;2569216;77;25636;-80
2021/12/15 03:54:14;;;;;;;40.38;23.30;;;;;;;8.39;57.16;101141.89;2569217;77;25622;-78
2021/12/15 03:57:35;;;;;;;31.17;20.85;;;;;;;8.40;57.16;101135.88;2568953;77;25680;-80
2021/12/15 04:01:11;;;;;;;33.65;21.07;;;;;;;8.40;57.12;101139.77;2569322;77;26433;-80
2021/12/15 04:04:32;;;;;;;36.33;21.07;;;;;;;8.41;57.20;101136.38;2569545;76;25646;-81
2021/12/15 04:07:54;;;;;;;35.20;21.33;;;;;;;8.42;57.19;101147.65;2569386;77;25642;-78
2021/12/15 04:11:20;;;;;;;38.17;21.62;;;;;;;8.42;57.22;101152.43;2569478;76;25665;-78
2021/12/15 04:14:53;;;;;;;36.88;22.67;;;;;;;8.44;57.24;101155.11;2568961;77;25648;-78
2021/12/15 04:18:08;;;;;;;38.20;21.95;;;;;;;8.43;57.23;101145.10;2567863;77;25538;-77
2021/12/15 04:21:30;;;;;;;34.55;21.02;;;;;;;8.44;57.26;101151.22;2569490;77;25720;-79
2021/12/15 04:24:52;;;;;;;38.15;21.70;;;;;;;8.45;57.29;101147.38;2566415;76;25735;-78
2021/12/15 04:28:21;;;;;;;36.58;20.88;;;;;;;8.45;57.28;101156.88;2526885;78;25665;-78
2021/12/15 04:31:57;;;;;;;35.17;21.80;;;;;;;8.46;57.26;101169.05;2527386;78;25602;-78
2021/12/15 04:35:19;;;;;;;36.65;22.10;;;;;;;8.46;57.29;101167.33;2527151;78;25658;-78
2021/12/15 04:38:42;;;;;;;35.78;21.12;;;;;;;8.47;57.31;101177.31;2527226;78;25647;-80
2021/12/15 04:42:05;;;;;;;33.25;20.32;;;;;;;8.47;57.26;101173.41;2527118;77;25625;-78
2021/12/15 04:45:27;;;;;;;34.88;20.27;;;;;;;8.48;57.28;101173.50;2527045;78;25675;-78
2021/12/15 04:48:50;;;;;;;31.48;19.50;;;;;;;8.48;57.30;101170.02;2526975;78;25666;-79
2021/12/15 04:52:13;;;;;;;35.75;19.95;;;;;;;8.49;57.31;101178.28;2526852;78;26112;-80
2021/12/15 04:55:37;;;;;;;31.73;20.85;;;;;;;8.50;57.30;101183.56;2527263;78;25629;-79
2021/12/15 04:58:58;;;;;;;35.28;21.07;;;;;;;8.50;57.33;101189.14;2526794;78;25937;-77
2021/12/15 05:02:21;;;;;;;33.98;20.75;;;;;;;8.49;57.33;101184.78;2526954;78;25691;-77
2021/12/15 05:05:42;;;;;;;33.85;20.62;;;;;;;8.50;57.36;101181.34;2527178;78;25675;-78
2021/12/15 05:09:05;;;;;;;34.35;19.92;;;;;;;8.50;57.37;101191.74;2527156;78;25657;-78
2021/12/15 05:12:27;;;;;;;35.08;20.90;;;;;;;8.50;57.36;101188.77;2527067;78;25635;-80
2021/12/15 05:15:48;;;;;;;35.63;19.75;;;;;;;8.53;57.35;101189.70;2527168;78;25145;-78
2021/12/15 05:19:09;;;;;;;29.00;18.75;;;;;;;8.53;57.38;101189.28;2527114;78;25630;-80
2021/12/15 05:22:32;;;;;;;31.20;18.80;;;;;;;8.54;57.38;101192.39;2527260;78;28137;-77
2021/12/15 05:25:53;;;;;;;32.75;20.52;;;;;;;8.55;57.36;101199.77;2526974;76;25524;-79
2021/12/15 05:29:14;;;;;;;30.45;18.98;;;;;;;8.56;57.37;101208.03;2526733;78;25189;-80
2021/12/15 05:32:35;;;;;;;29.35;18.48;;;;;;;8.57;57.36;101205.91;2526991;78;25598;-80
2021/12/15 05:35:56;;;;;;;31.23;18.90;;;;;;;8.56;57.36;101205.02;2527154;78;27100;-83
2021/12/15 05:39:21;;;;;;;30.68;19.52;;;;;;;8.57;57.35;101202.00;2527140;78;25681;-79
2021/12/15 05:42:42;;;;;;;30.05;19.95;;;;;;;8.58;57.41;101212.48;2526988;76;25687;-80
2021/12/15 05:46:07;;;;;;;29.63;19.03;;;;;;;8.58;57.40;101212.91;2527196;78;27638;-80
2021/12/15 05:49:29;;;;;;;34.83;20.43;;;;;;;8.58;57.41;101217.69;2527244;78;25685;-81
2021/12/15 05:52:50;;;;;;;33.33;19.65;;;;;;;8.58;57.41;101220.28;2526789;78;25637;-80
2021/12/15 05:56:13;;;;;;;28.17;18.92;;;;;;;8.59;57.41;101217.27;2527212;78;25598;-80
2021/12/15 05:59:34;;;;;;;30.12;18.92;;;;;;;8.58;57.42;101222.00;2526391;78;25686;-80
2021/12/15 06:02:58;;;;;;;29.65;17.65;;;;;;;8.58;57.42;101222.00;2527004;78;25578;-79
2021/12/15 06:06:19;;;;;;;34.48;20.32;;;;;;;8.59;57.46;101226.37;2526940;78;25699;-78
2021/12/15 06:09:40;;;;;;;30.33;18.93;;;;;;;8.59;57.43;101230.27;2526683;78;28021;-80
2021/12/15 06:13:05;;;;;;;26.80;18.20;;;;;;;8.60;57.46;101237.23;2526877;77;28073;-80
2021/12/15 06:16:26;;;;;;;31.82;19.32;;;;;;;8.61;57.46;101237.32;2525721;77;25806;-79
2021/12/15 06:19:47;;;;;;;32.07;18.77;;;;;;;8.60;57.47;101238.12;2526829;78;27002;-80
2021/12/15 06:23:12;;;;;;;28.42;17.80;;;;;;;8.60;57.47;101240.72;2527012;78;25662;-80
2021/12/15 06:26:33;;;;;;;30.48;19.23;;;;;;;8.62;57.47;101247.30;2541774;77;25552;-79
2021/12/15 06:29:54;;;;;;;26.65;17.10;;;;;;;8.61;57.46;101239.92;2568773;77;25488;-78
2021/12/15 06:33:16;;;;;;;34.30;19.53;;;;;;;8.63;57.46;101243.87;2569059;77;27724;-80
2021/12/15 06:36:39;;;;;;;29.85;18.40;;;;;;;8.64;57.46;101245.64;2568979;76;25680;-80
2021/12/15 06:40:00;;;;;;;27.50;18.40;;;;;;;8.65;57.46;101257.43;2569404;77;25621;-79
2021/12/15 06:43:22;;;;;;;31.77;19.12;;;;;;;8.64;57.47;101250.84;2569275;77;25594;-83
2021/12/15 07:01:15;;;;;;;29.02;18.40;;;;;;;8.66;57.47;101272.20;2401818;82;25826;-78
2021/12/15 07:04:41;;;;;;;28.02;18.70;;;;;;;8.68;57.47;101278.37;2401885;82;25763;-79
2021/12/15 07:08:07;;;;;;;28.60;18.52;;;;;;;8.69;57.44;101287.05;2400588;82;25655;-81
2021/12/15 07:11:28;;;;;;;31.10;17.95;;;;;;;8.71;57.46;101282.82;2398153;82;25857;-78
2021/12/15 07:14:49;;;;;;;29.07;17.83;;;;;;;8.70;57.47;101281.91;2369977;82;27184;-82
2021/12/15 07:18:12;;;;;;;28.75;18.20;;;;;;;8.73;57.45;101285.95;2359403;83;25765;-82
2021/12/15 07:21:37;;;;;;;32.70;18.62;;;;;;;8.75;57.46;101291.23;2359194;83;25994;-81
2021/12/15 07:24:58;;;;;;;27.85;18.02;;;;;;;8.77;57.46;101291.29;2359297;83;26502;-80
2021/12/15 07:28:24;;;;;;;29.92;17.85;;;;;;;8.79;57.43;101294.86;2439206;78;25840;-79
2021/12/15 07:31:44;;;;;;;29.90;18.15;;;;;;;8.80;57.42;101301.41;2518494;78;25855;-77
2021/12/15 07:35:11;;;;;;;28.17;17.95;;;;;;;8.81;57.39;101297.10;2519377;78;25689;-77
2021/12/15 07:38:41;;;;;;;31.02;18.62;;;;;;;8.85;57.37;101295.14;2523151;77;25706;-77
2021/12/15 07:42:10;;;;;;;26.20;16.90;;;;;;;8.87;57.36;101283.97;2552544;76;25622;-79
2021/12/15 07:45:32;;;;;;;30.48;19.27;;;;;;;8.92;57.29;101283.78;2521172;78;25786;-77
2021/12/15 07:48:54;;;;;;;27.17;16.65;;;;;;;8.96;57.21;101275.28;2526301;77;26071;-77
2021/12/15 07:52:15;;;;;;;30.17;18.42;;;;;;;9.00;57.14;101275.00;2566893;77;25699;-77
2021/12/15 07:55:37;;;;;;;29.27;18.20;;;;;;;9.05;57.08;101278.72;2549854;77;25879;-79
2021/12/15 07:59:00;;;;;;;31.25;17.20;;;;;;;9.08;57.03;101296.14;2534112;77;26120;-79
2021/12/15 08:02:21;;;;;;;28.05;18.12;;;;;;;9.12;56.98;101292.88;2550209;76;25941;-83
2021/12/15 08:05:44;;;;;;;27.30;17.23;;;;;;;9.15;56.93;101301.71;2533892;77;29575;-77
2021/12/15 08:09:06;;;;;;;26.02;17.15;;;;;;;9.18;56.93;101310.07;2528981;77;25646;-83
2021/12/15 08:12:28;;;;;;;28.65;18.07;;;;;;;9.21;56.89;101315.37;2526532;77;25654;-78
2021/12/15 08:15:49;;;;;;;26.93;17.50;;;;;;;9.22;56.86;101315.88;2525975;77;25670;-77
2021/12/15 08:19:15;;;;;;;28.00;17.30;;;;;;;9.25;56.83;101312.11;2535898;77;26165;-76
2021/12/15 08:22:37;;;;;;;29.07;18.00;;;;;;;9.30;56.84;101317.51;2531355;77;25614;-75
2021/12/15 08:25:59;;;;;;;27.00;17.95;;;;;;;9.34;56.80;101325.50;2526471;77;25687;-80
2021/12/15 08:29:20;;;;;;;29.98;17.62;;;;;;;9.36;56.74;101325.59;2521746;78;25906;-78
2021/12/15 08:32:41;;;;;;;28.07;18.35;;;;;;;9.40;56.73;101335.30;2523077;78;25627;-78
2021/12/15 08:36:12;;;;;;;27.02;17.10;;;;;;;9.42;56.69;101336.27;2522203;78;25717;-80
2021/12/15 08:39:33;;;;;;;26.35;16.75;;;;;;;9.43;56.65;101343.25;2522275;78;25822;-79
2021/12/15 08:42:56;;;;;;;29.00;17.83;;;;;;;9.43;56.62;101342.83;2522002;78;29505;-79
2021/12/15 08:46:22;;;;;;;26.75;17.65;;;;;;;9.45;56.61;101342.91;2521793;78;25237;-76
2021/12/15 08:49:43;;;;;;;24.90;16.48;;;;;;;9.45;56.60;101345.09;2520301;78;25475;-83
2021/12/15 08:53:09;;;;;;;29.92;17.92;;;;;;;9.58;59.88;101354.72;2522043;78;25669;-80
2021/12/15 08:56:29;;;;;;;27.58;17.23;;;;;;;9.95;60.05;101351.95;2521821;77;25619;-80
2021/12/15 08:59:50;;;;;;;29.00;16.57;;;;;;;10.06;59.58;101343.31;2523279;78;25584;-78
2021/12/15 09:03:15;;;;;;;25.30;16.80;;;;;;;10.04;59.56;101328.02;2522376;78;25631;-79
2021/12/15 09:06:38;;;;;;;26.45;16.45;;;;;;;10.01;59.61;101339.61;2522985;78;25991;-80
2021/12/15 09:09:59;;;;;;;29.00;17.82;;;;;;;9.97;59.57;101325.57;2522954;78;25543;-80
2021/12/15 09:13:21;;;;;;;28.20;17.07;;;;;;;9.93;59.55;101322.38;2534237;76;25556;-83
2021/12/15 09:16:46;;;;;;;30.88;17.60;;;;;;;9.90;59.54;101327.03;2499613;77;25580;-75
2021/12/15 09:20:15;;;;;;;26.17;16.77;;;;;;;9.87;59.52;101314.30;2525703;77;25646;-77
2021/12/15 09:23:36;;;;;;;28.40;17.02;;;;;;;9.86;59.50;101309.51;2544498;76;25669;-77
2021/12/15 09:26:58;;;;;;;23.20;14.65;;;;;;;9.84;59.46;101302.03;2523014;78;25654;-79
2021/12/15 09:30:21;;;;;;;24.90;16.42;;;;;;;9.85;59.39;101312.91;2522776;78;25619;-76
2021/12/15 09:33:46;;;;;;;27.02;15.40;;;;;;;9.84;59.33;101310.27;2522648;78;25576;-81
2021/12/15 09:37:07;;;;;;;25.05;16.50;;;;;;;9.84;59.25;101310.27;2522861;78;25622;-80
2021/12/15 09:40:29;;;;;;;22.67;15.18;;;;;;;9.84;59.18;101313.75;2522698;78;25167;-81
2021/12/15 09:43:52;;;;;;;25.97;15.23;;;;;;;9.85;59.10;101316.82;2522897;78;25666;-77
2021/12/15 09:47:24;;;;;;;22.30;14.83;;;;;;;9.87;58.99;101311.28;2523074;78;25682;-80
2021/12/15 10:20:26;;;;;;;23.77;15.05;;;;;;;10.40;60.08;101268.69;2268877;87;25953;-85
2021/12/15 10:23:50;;;;;;;19.50;13.60;;;;;;;10.39;59.97;101257.37;2269211;87;26459;-79
2021/12/15 10:27:10;;;;;;;22.25;15.85;;;;;;;10.41;59.83;101261.33;2266521;85;25723;-79
2021/12/15 10:30:42;;;;;;;24.15;15.58;;;;;;;10.37;59.72;101260.33;2254149;87;25675;-81
2021/12/15 10:34:05;;;;;;;23.38;15.93;;;;;;;10.40;59.73;101263.47;2252964;87;25660;-83
2021/12/15 10:37:26;;;;;;;28.00;16.25;;;;;;;10.44;59.70;101266.66;2253836;87;25841;-83
2021/12/15 10:41:13;;;;;;;23.75;15.95;;;;;;;10.47;59.57;101262.88;2252181;84;25761;-83
2021/12/15 10:44:34;;;;;;;27.90;15.83;;;;;;;10.46;59.55;101268.92;2253782;86;25285;-80
2021/12/15 10:47:56;;;;;;;24.57;16.07;;;;;;;10.49;59.65;101266.41;2253920;87;26516;-83
2021/12/15 10:51:31;;;;;;;23.50;15.60;;;;;;;10.58;59.69;101267.19;2253992;87;25810;-84
2021/12/15 10:54:56;;;;;;;22.13;15.32;;;;;;;10.64;60.00;101264.81;2477381;79;25727;-85
2021/12/15 10:58:41;;;;;;;23.92;15.78;;;;;;;10.66;59.92;101265.73;2476297;79;25635;-85
2021/12/15 11:02:22;;;;;;;24.32;14.63;;;;;;;10.66;59.87;101267.46;2477394;79;25729;-87
2021/12/15 11:05:41;;;;;;;20.88;15.08;;;;;;;10.68;60.11;101259.29;2476919;77;25745;-84
2021/12/15 11:09:20;;;;;;;29.23;17.87;;;;;;;10.68;60.13;101257.57;2477224;79;25774;-82
2021/12/15 11:13:02;;;;;;;34.80;18.60;;;;;;;10.60;59.68;101249.47;2477900;79;25702;-84
2021/12/15 11:16:30;;;;;;;36.75;18.90;;;;;;;10.49;59.45;101243.36;2476628;79;25663;-84
2021/12/15 11:20:03;;;;;;;35.13;20.17;;;;;;;10.40;59.42;101241.31;2477467;79;25701;-87
2021/12/15 11:23:30;;;;;;;25.23;14.60;;;;;;;10.35;59.36;101233.30;2477707;78;25611;-82
2021/12/15 11:27:16;;;;;;;25.80;16.12;;;;;;;10.45;61.38;101238.87;2477180;79;25845;-82
2021/12/15 11:31:00;;;;;;;31.48;17.90;;;;;;;11.02;60.83;101233.59;2476657;79;25658;-84
2021/12/15 11:34:21;;;;;;;32.83;19.35;;;;;;;10.96;59.75;101222.05;2477496;79;25154;-82
2021/12/15 11:38:00;;;;;;;36.30;20.57;;;;;;;10.80;59.58;101232.34;2476827;79;25682;-83
2021/12/15 11:41:26;;;;;;;25.55;14.85;;;;;;;10.69;59.43;101236.28;2477444;79;25377;-82
2021/12/15 11:44:47;;;;;;;29.15;17.15;;;;;;;10.61;60.67;101228.19;2471106;78;25872;-83
2021/12/15 11:48:19;;;;;;;30.68;17.40;;;;;;;10.90;60.18;101234.47;2477087;79;25648;-81
2021/12/15 11:51:51;;;;;;;31.20;17.73;;;;;;;10.82;59.59;101230.27;2478386;79;25682;-79
2021/12/15 11:55:29;;;;;;;32.75;19.30;;;;;;;10.71;59.67;101251.16;2478149;79;25751;-86
2021/12/15 11:58:59;;;;;;;31.30;18.73;;;;;;;10.66;59.73;101235.75;2477948;77;25178;-88
2021/12/15 12:02:29;;;;;;;;;;;;;;;10.64;59.76;101241.34;2480178;79;25902;-80
2021/12/15 12:05:50;;;;;;;31.02;18.87;;;;;;;10.59;59.74;101229.84;2477671;79;25473;-83
2021/12/15 12:09:11;;;;;;;30.85;17.82;;;;;;;10.58;59.70;101228.95;2477539;78;25677;-80
2021/12/15 12:12:47;;;;;;;31.70;17.48;;;;;;;10.54;59.71;101234.89;2477921;79;25604;-86
2021/12/15 12:16:08;;;;;;;31.30;18.25;;;;;;;10.48;59.71;101226.83;2478561;78;25722;-90
2021/12/15 12:19:31;;;;;;;30.43;17.12;;;;;;;10.47;59.74;101232.89;2461189;80;25688;-90
2021/12/15 12:22:56;;;;;;;28.45;16.37;;;;;;;10.44;59.73;101233.19;2463550;78;25648;-92
2021/12/15 12:26:26;;;;;;;30.85;18.05;;;;;;;10.41;59.76;101230.05;2465150;80;25906;-83
2021/12/15 12:29:44;;;;;;;30.05;18.40;;;;;;;10.39;59.79;101222.57;2494963;78;25642;-88
2021/12/15 12:33:09;;;;;;;32.20;17.60;;;;;;;10.39;59.79;101230.39;2547015;77;25149;-89
2021/12/15 12:36:34;;;;;;;29.85;17.50;;;;;;;10.40;59.81;101238.70;2545945;77;25134;-85
2021/12/15 12:39:58;;;;;;;28.52;17.52;;;;;;;10.40;59.81;101242.20;2514058;77;25655;-81
2021/12/15 12:43:29;;;;;;;30.17;18.87;;;;;;;10.42;59.80;101248.76;2560297;77;25555;-83
2021/12/15 12:47:07;;;;;;;35.88;18.00;;;;;;;10.43;59.80;101248.34;2560189;77;25629;-78
2021/12/15 13:01:15;;;;;;;23.98;16.85;;;;;;;10.44;59.88;101249.72;2266493;86;25785;-83
2021/12/15 13:04:43;;;;;;;30.10;17.90;;;;;;;10.46;59.90;101251.98;2289823;86;25291;-81
2021/12/15 13:08:34;;;;;;;29.77;17.02;;;;;;;10.48;59.93;101252.02;2318388;85;25630;-82
2021/12/15 13:11:57;;;;;;;29.48;17.27;;;;;;;10.48;59.97;101255.52;2280369;85;25705;-79
2021/12/15 13:15:23;;;;;;;32.98;18.35;;;;;;;10.49;59.90;101262.50;2302537;85;25840;-81
2021/12/15 13:18:58;;;;;;;36.25;18.50;;;;;;;10.46;59.90;101263.72;2312428;85;25713;-82
2021/12/15 13:22:45;;;;;;;38.20;20.02;;;;;;;10.45;59.92;101272.76;2314960;85;25700;-87
2021/12/15 13:29:52;;;;;;;38.48;22.62;;;;;;;10.39;59.98;101279.92;2328636;81;25792;-83
2021/12/15 13:33:34;;;;;;;45.10;22.02;;;;;;;10.36;60.00;101267.68;2390264;78;25944;-78
2021/12/15 13:36:55;;;;;;;42.70;21.80;;;;;;;10.35;59.97;101271.09;2573514;75;25702;-87
2021/12/15 13:40:56;;;;;;;46.15;23.07;;;;;;;10.33;59.99;101270.59;2562079;76;25615;-79
2021/12/15 13:44:30;;;;;;;35.78;17.85;;;;;;;10.32;60.01;101270.97;2548385;77;25619;-79
2021/12/15 13:47:49;;;;;;;37.60;19.95;;;;;;;10.58;62.25;101252.42;2545817;77;25607;-80
2021/12/15 13:51:10;;;;;;;36.95;21.45;;;;;;;10.86;62.18;101280.41;2548151;77;30526;-87
2021/12/15 13:54:40;;;;;;;45.80;21.93;;;;;;;10.79;61.52;101269.27;2548529;77;30408;-85
2021/12/15 13:58:06;;;;;;;38.70;22.27;;;;;;;10.79;61.52;101269.27;2545555;77;25753;-86
2021/12/15 14:01:28;;;;;;;42.90;21.87;;;;;;;10.73;61.69;101271.69;2543978;77;25566;-80
2021/12/15 14:05:09;;;;;;;43.30;23.18;;;;;;;10.67;61.62;101270.14;2526716;77;25289;-77
2021/12/15 14:08:41;;;;;;;47.85;24.18;;;;;;;10.63;61.57;101269.53;2518437;77;25678;-80
2021/12/15 14:12:03;;;;;;;41.25;22.00;;;;;;;10.56;61.48;101269.75;2501486;77;25677;-90
2021/12/15 14:15:40;;;;;;;42.65;23.32;;;;;;;10.52;61.43;101264.34;2525685;77;25553;-85
2021/12/15 14:19:07;;;;;;;37.93;21.77;;;;;;;10.49;61.34;101260.31;2541914;77;26359;-87
2021/12/15 14:22:27;;;;;;;50.75;25.23;;;;;;;10.46;61.30;101266.32;2569787;76;25602;-80
2021/12/15 14:25:50;;;;;;;44.15;23.22;;;;;;;10.44;61.25;101263.17;2509996;76;29915;-85
2021/12/15 14:29:19;;;;;;;41.05;22.73;;;;;;;10.40;61.22;101253.93;2544765;77;25165;-82
2021/12/15 14:32:40;;;;;;;38.33;22.52;;;;;;;10.38;61.21;101249.48;2522178;78;25650;-84
2021/12/15 14:36:15;;;;;;;43.40;23.67;;;;;;;10.35;61.16;101254.16;2533572;77;25438;-79
2021/12/15 14:39:40;;;;;;;43.85;23.40;;;;;;;10.33;61.16;101252.34;2565375;77;25780;-81
2021/12/15 14:43:01;;;;;;;41.28;22.50;;;;;;;10.31;61.14;101249.66;2568267;77;25657;-86
2021/12/15 14:46:31;;;;;;;39.38;23.07;;;;;;;10.30;61.10;101251.80;2567478;77;25642;-86
2021/12/15 14:49:57;;;;;;;42.53;23.22;;;;;;;10.29;61.11;101247.81;2567437;77;25848;-85
2021/12/15 14:53:18;;;;;;;41.08;23.20;;;;;;;10.22;61.08;101237.95;2567870;77;25311;-89
2021/12/15 14:56:55;;;;;;;42.55;23.12;;;;;;;10.25;61.08;101248.08;2569654;76;25524;-80
2021/12/15 15:00:25;;;;;;;44.08;25.30;;;;;;;10.24;61.04;101245.01;2569207;77;25959;-83
2021/12/15 15:04:02;;;;;;;39.58;23.50;;;;;;;10.21;61.04;101246.19;2569951;77;25737;-81
2021/12/15 15:07:32;;;;;;;37.63;22.93;;;;;;;10.20;61.06;101239.21;2569505;77;25661;-81
2021/12/15 15:10:54;;;;;;;36.63;20.85;;;;;;;10.18;61.05;101226.11;2569268;76;25538;-80
2021/12/15 15:14:17;;;;;;;36.77;22.22;;;;;;;10.19;61.05;101225.68;2569685;77;25653;-85
2021/12/15 15:17:54;;;;;;;38.28;21.93;;;;;;;10.17;61.07;101216.52;2567805;77;25670;-81
2021/12/15 15:21:14;;;;;;;33.92;22.00;;;;;;;10.16;61.05;101217.78;2569652;77;25607;-87
2021/12/15 15:24:38;;;;;;;37.15;21.65;;;;;;;10.14;61.03;101205.98;2569218;77;25678;-85
2021/12/15 15:28:04;;;;;;;36.37;22.30;;;;;;;10.13;61.06;101202.91;2569784;77;31372;-79
2021/12/15 15:31:35;;;;;;;36.85;21.95;;;;;;;10.13;61.06;101208.53;2560813;77;25571;-80
2021/12/15 15:35:01;;;;;;;40.55;23.22;;;;;;;10.13;61.06;101220.27;2560655;77;25752;-82
2021/12/15 15:38:27;;;;;;;33.50;20.77;;;;;;;10.10;61.05;101219.72;2559019;77;25645;-84
2021/12/15 15:41:49;;;;;;;28.73;20.48;;;;;;;10.09;61.07;101210.14;2560711;77;25650;-80
2021/12/15 15:45:34;;;;;;;38.95;21.57;;;;;;;10.09;61.12;101206.23;2560854;77;25703;-80
2021/12/15 15:48:58;;;;;;;35.50;22.82;;;;;;;10.09;61.14;101200.10;2560591;77;25610;-84
2021/12/15 15:52:21;;;;;;;34.03;21.55;;;;;;;10.07;61.13;101203.97;2552714;77;25680;-79
2021/12/15 15:55:46;;;;;;;35.03;22.20;;;;;;;10.08;61.17;101222.67;2513565;78;25734;-79
2021/12/15 15:59:12;;;;;;;38.53;23.38;;;;;;;10.07;61.17;101243.47;2542788;77;25177;-83
2021/12/15 16:02:33;;;;;;;38.88;23.98;;;;;;;10.07;61.22;101239.56;2559455;77;25619;-82
2021/12/15 16:05:59;;;;;;;40.87;23.13;;;;;;;10.08;61.23;101247.42;2559237;77;30969;-83
2021/12/15 16:09:25;;;;;;;38.70;22.65;;;;;;;10.08;61.21;101249.14;2558700;77;25604;-82
2021/12/15 16:12:46;;;;;;;38.85;22.75;;;;;;;10.09;61.21;101244.01;2532528;77;25702;-78
2021/12/15 16:16:17;;;;;;;40.33;23.38;;;;;;;10.09;61.23;101247.00;2558952;75;25637;-78
2021/12/15 16:19:46;;;;;;;37.00;22.05;;;;;;;10.10;61.25;101249.69;2559276;77;26301;-79
2021/12/15 16:23:05;;;;;;;41.92;23.12;;;;;;;10.09;61.25;101244.01;2551075;77;25685;-81
2021/12/15 16:26:29;;;;;;;41.65;25.08;;;;;;;10.10;61.23;101236.66;2537073;77;26061;-78
2021/12/15 16:29:54;;;;;;;45.55;25.30;;;;;;;10.11;61.23;101241.03;2539018;77;25557;-79
2021/12/15 16:33:29;;;;;;;43.20;24.72;;;;;;;10.12;61.22;101227.20;2526588;77;25683;-79
2021/12/15 16:36:50;;;;;;;41.10;21.60;;;;;;;10.09;61.24;101221.86;2525765;76;25664;-79
2021/12/15 16:40:16;;;;;;;57.25;25.80;;;;;;;10.42;66.25;101236.14;2527034;77;29308;-78
2021/12/15 16:44:13;;;;;;;44.13;22.17;;;;;;;10.99;65.07;101241.30;2526930;77;26349;-82
2021/12/15 16:47:36;;;;;;;47.38;24.37;;;;;;;11.48;66.72;101249.97;2523994;78;26349;-81
2021/12/15 16:51:08;;;;;;;54.42;24.27;;;;;;;11.91;65.06;101251.39;2526796;77;26295;-82
2021/12/15 16:54:33;;;;;;;46.42;24.60;;;;;;;11.85;64.18;101258.62;2526511;77;25587;-81
2021/12/15 16:57:55;;;;;;;46.20;24.47;;;;;;;11.70;63.79;101255.05;2526666;78;25751;-82
2021/12/15 17:01:17;;;;;;;47.27;24.67;;;;;;;11.54;63.56;101252.36;2527037;78;25702;-81
2021/12/15 17:04:44;;;;;;;47.58;24.67;;;;;;;11.43;63.40;101261.53;2526349;76;25654;-84
2021/12/15 17:08:22;;;;;;;53.68;26.68;;;;;;;11.33;63.37;101259.45;2526441;78;25966;-82